Aviation Digital Data Service (ADDS)

Output produced by METARs form (2235 UTC 30 March 2017)
found at http://www.aviationweather.gov/adds/metars/
 
VCBI 302210Z 17003KT 7000 VCTS FEW018 FEW020CB 26/24 Q1010 NOSIG RMK SW/W/NW
TAF VCBI 302140Z 3100/0106 16006KT 9999 FEW018 TX32/3108Z TN25/0100Z 
     BECMG 3104/3106 26010KT 
     PROB30 
     TEMPO 3110/3118 SCT016 FEW020CB BKN080 
     BECMG 3114/3116 16008KT